Impacts TAF Board
For situational awareness. Not to be used for flight planning purposes.
IDs:

KATL - Atlanta/Hartsfield-J, GA, US

Issued at 1120 UTC 30 Mar 2020
Updated at 1327 UTC 30 Mar 2020
Potential Impact None Slight Moderate High
Time1252Z 30/14Z 30/15Z 30/16Z 30/17Z 30/18Z 30/19Z 30/20Z 30/21Z 30/22Z 30/23Z 31/00Z 31/01Z 31/02Z>>
Type OBS PRVL PRVL PRVL PRVL PRVL PRVL PRVL PRVL PRVL PRVL PRVL PRVL PRVL
VIS 10 >6 >6 >6 >6 >6 >6 >6 >6 >6 >6 >6 >6 >6
CIG 250 200 200 200 200 200 200 200 200 200 200 120 120 120
Cover BKN BKN BKN BKN BKN BKN BKN BKN BKN BKN BKN OVC OVC OVC
FltCat VFR VFR VFR VFR VFR VFR VFR VFR VFR VFR VFR VFR VFR VFR
WX -- -- -- -- -- -- -- -- -- -- -- -- -- --
WDir 300 340 340 340 340 340 340 340 340 340 340 320 320 320
WSpd 7 10 10 10 10 10 10 10 10 10 10 6 6 6
WGst -- -- -- -- -- -- -- -- -- -- -- -- -- --
Raw TAF
KATL 301120Z 3012/3118 32008KT P6SM BKN150
  FM301400 34010KT P6SM SCT150 BKN200
  FM310000 32006KT P6SM SCT070 BKN120 OVC200
  FM311000 01007KT P6SM BKN070 OVC120
  PROB30 3110/3115 -RA
  FM311500 10010KT P6SM -SHRA SCT010 OVC040


Raw METAR
KATL 301252Z 30007KT 10SM FEW110 SCT180 BKN250 16/05 A3019 RMK AO2 SLP217 VIRGA DSNT NE SE-SW ACC DSNT NE E T01560050
KATL 301152Z 30009KT 10SM FEW120 SCT180 BKN220 BKN250 16/04 A3018 RMK AO2 SLP213 ACC DSNT NE VIRGA OHD-ALQDS T01610044 10183 20161 53014
KATL 301052Z 32008KT 10SM SCT180 BKN220 BKN250 16/06 A3016 RMK AO2 SLP206 VIRGA OHD-W T01610056

METAR Board
Radar Display
Forecast Discussion
For situational awareness. Not to be used for flight planning purposes.